sensor_id;sensor_type;location;lat;lon;timestamp;pressure;altitude;pressure_sealevel;temperature;humidity
55763;BME280;42162;51.958;5.426;2023-11-21T00:02:29;101083.41;;;9.04;88.85
55763;BME280;42162;51.958;5.426;2023-11-21T00:04:56;101098.16;;;9.02;88.73
55763;BME280;42162;51.958;5.426;2023-11-21T00:07:24;101094.75;;;8.97;88.86
55763;BME280;42162;51.958;5.426;2023-11-21T00:09:52;101097.38;;;8.93;88.82
55763;BME280;42162;51.958;5.426;2023-11-21T00:12:19;101093.97;;;8.90;88.72
55763;BME280;42162;51.958;5.426;2023-11-21T00:14:47;101100.91;;;8.88;88.73
55763;BME280;42162;51.958;5.426;2023-11-21T00:17:14;101099.19;;;8.87;88.79
55763;BME280;42162;51.958;5.426;2023-11-21T00:19:41;101094.88;;;8.87;88.85
55763;BME280;42162;51.958;5.426;2023-11-21T00:22:09;101093.19;;;8.86;88.63
55763;BME280;42162;51.958;5.426;2023-11-21T00:24:37;101096.63;;;8.85;88.41
55763;BME280;42162;51.958;5.426;2023-11-21T00:27:04;101103.56;;;8.85;88.57
55763;BME280;42162;51.958;5.426;2023-11-21T00:29:32;101100.97;;;8.85;88.51
55763;BME280;42162;51.958;5.426;2023-11-21T00:32:00;101100.13;;;8.83;88.14
55763;BME280;42162;51.958;5.426;2023-11-21T00:34:27;101101.00;;;8.80;88.38
55763;BME280;42162;51.958;5.426;2023-11-21T00:36:54;101101.06;;;8.75;88.08
55763;BME280;42162;51.958;5.426;2023-11-21T00:39:21;101100.28;;;8.69;88.22
55763;BME280;42162;51.958;5.426;2023-11-21T00:41:49;101108.13;;;8.66;88.18
55763;BME280;42162;51.958;5.426;2023-11-21T00:44:16;101106.41;;;8.64;88.28
55763;BME280;42162;51.958;5.426;2023-11-21T00:46:43;101109.88;;;8.63;88.28
55763;BME280;42162;51.958;5.426;2023-11-21T00:49:10;101110.78;;;8.61;88.39
55763;BME280;42162;51.958;5.426;2023-11-21T00:51:37;101112.50;;;8.59;88.29
55763;BME280;42162;51.958;5.426;2023-11-21T00:54:05;101122.00;;;8.60;88.29
55763;BME280;42162;51.958;5.426;2023-11-21T00:56:33;101128.03;;;8.57;88.35
55763;BME280;42162;51.958;5.426;2023-11-21T00:59:00;101128.03;;;8.57;88.69
55763;BME280;42162;51.958;5.426;2023-11-21T01:01:28;101128.03;;;8.57;88.51
55763;BME280;42162;51.958;5.426;2023-11-21T01:03:55;101134.94;;;8.60;88.39
55763;BME280;42162;51.958;5.426;2023-11-21T01:06:22;101140.13;;;8.58;88.46
55763;BME280;42162;51.958;5.426;2023-11-21T01:08:49;101144.44;;;8.59;88.32
55763;BME280;42162;51.958;5.426;2023-11-21T01:11:16;101141.84;;;8.61;88.34
55763;BME280;42162;51.958;5.426;2023-11-21T01:13:44;101139.22;;;8.62;88.45
55763;BME280;42162;51.958;5.426;2023-11-21T01:16:11;101141.81;;;8.62;88.32
55763;BME280;42162;51.958;5.426;2023-11-21T01:18:39;101143.53;;;8.63;88.34
55763;BME280;42162;51.958;5.426;2023-11-21T01:21:07;101148.69;;;8.65;88.17
55763;BME280;42162;51.958;5.426;2023-11-21T01:23:34;101156.44;;;8.65;88.09
55763;BME280;42162;51.958;5.426;2023-11-21T01:26:02;101151.28;;;8.63;87.93
55763;BME280;42162;51.958;5.426;2023-11-21T01:28:30;101152.19;;;8.59;88.11
55763;BME280;42162;51.958;5.426;2023-11-21T01:30:57;101153.13;;;8.54;88.32
55763;BME280;42162;51.958;5.426;2023-11-21T01:33:24;101145.41;;;8.51;88.31
55763;BME280;42162;51.958;5.426;2023-11-21T01:35:52;101153.19;;;8.49;88.46
55763;BME280;42162;51.958;5.426;2023-11-21T01:38:22;101149.75;;;8.44;88.17
55763;BME280;42162;51.958;5.426;2023-11-21T01:40:49;101150.69;;;8.37;88.50
55763;BME280;42162;51.958;5.426;2023-11-21T01:43:17;101148.19;;;8.27;88.34
55763;BME280;42162;51.958;5.426;2023-11-21T01:45:44;101152.56;;;8.21;88.44
55763;BME280;42162;51.958;5.426;2023-11-21T01:48:15;101159.53;;;8.15;88.68
55763;BME280;42162;51.958;5.426;2023-11-21T01:50:43;101163.84;;;8.15;88.70
55763;BME280;42162;51.958;5.426;2023-11-21T01:53:12;101160.38;;;8.16;88.79
55763;BME280;42162;51.958;5.426;2023-11-21T01:55:43;101158.69;;;8.13;88.68
55763;BME280;42162;51.958;5.426;2023-11-21T01:58:12;101173.34;;;8.13;88.37
55763;BME280;42162;51.958;5.426;2023-11-21T02:00:39;101168.22;;;8.10;88.55
55763;BME280;42162;51.958;5.426;2023-11-21T02:03:06;101165.63;;;8.08;88.74
55763;BME280;42162;51.958;5.426;2023-11-21T02:05:34;101176.03;;;8.05;88.40
55763;BME280;42162;51.958;5.426;2023-11-21T02:08:02;101179.50;;;8.01;88.63
55763;BME280;42162;51.958;5.426;2023-11-21T02:10:32;101179.50;;;7.98;88.59
55763;BME280;42162;51.958;5.426;2023-11-21T02:12:59;101176.06;;;7.96;88.49
55763;BME280;42162;51.958;5.426;2023-11-21T02:15:30;101182.06;;;8.01;88.61
55763;BME280;42162;51.958;5.426;2023-11-21T02:17:57;101187.22;;;8.04;88.70
55763;BME280;42162;51.958;5.426;2023-11-21T02:20:28;101191.50;;;8.07;88.64
55763;BME280;42162;51.958;5.426;2023-11-21T02:22:57;101195.81;;;8.08;88.57
55763;BME280;42162;51.958;5.426;2023-11-21T02:27:58;101202.66;;;8.15;88.75
55763;BME280;42162;51.958;5.426;2023-11-21T02:30:26;101208.66;;;8.17;88.69
55763;BME280;42162;51.958;5.426;2023-11-21T02:32:55;101209.50;;;8.21;88.91
55763;BME280;42162;51.958;5.426;2023-11-21T02:35:25;101208.63;;;8.25;88.99
55763;BME280;42162;51.958;5.426;2023-11-21T02:37:55;101206.00;;;8.28;88.80
55763;BME280;42162;51.958;5.426;2023-11-21T02:40:24;101207.69;;;8.29;88.74
55763;BME280;42162;51.958;5.426;2023-11-21T02:42:52;101205.09;;;8.30;88.98
55763;BME280;42162;51.958;5.426;2023-11-21T02:45:20;101205.09;;;8.30;88.88
55763;BME280;42162;51.958;5.426;2023-11-21T02:47:50;101206.81;;;8.30;88.99
55763;BME280;42162;51.958;5.426;2023-11-21T02:50:17;101202.50;;;8.32;89.17
55763;BME280;42162;51.958;5.426;2023-11-21T02:52:46;101204.25;;;8.31;89.08
55763;BME280;42162;51.958;5.426;2023-11-21T02:55:13;101211.97;;;8.33;89.09
55763;BME280;42162;51.958;5.426;2023-11-21T02:57:45;101205.97;;;8.31;88.94
55763;BME280;42162;51.958;5.426;2023-11-21T03:00:13;101212.91;;;8.27;88.81
55763;BME280;42162;51.958;5.426;2023-11-21T03:02:42;101212.03;;;8.25;89.07
55763;BME280;42162;51.958;5.426;2023-11-21T03:05:10;101211.19;;;8.26;88.98
55763;BME280;42162;51.958;5.426;2023-11-21T03:07:38;101211.16;;;8.29;89.08
55763;BME280;42162;51.958;5.426;2023-11-21T03:10:08;101215.47;;;8.30;89.22
55763;BME280;42162;51.958;5.426;2023-11-21T03:12:39;101213.69;;;8.34;89.27
55763;BME280;42162;51.958;5.426;2023-11-21T03:15:07;101212.81;;;8.37;89.08
55763;BME280;42162;51.958;5.426;2023-11-21T03:17:36;101205.03;;;8.37;89.05
55763;BME280;42162;51.958;5.426;2023-11-21T03:20:04;101206.81;;;8.33;89.24
55763;BME280;42162;51.958;5.426;2023-11-21T03:22:32;101203.41;;;8.28;89.07
55763;BME280;42162;51.958;5.426;2023-11-21T03:25:00;101206.00;;;8.23;89.33
55763;BME280;42162;51.958;5.426;2023-11-21T03:27:27;101206.06;;;8.18;89.65
55763;BME280;42162;51.958;5.426;2023-11-21T03:29:54;101211.28;;;8.15;89.60
55763;BME280;42162;51.958;5.426;2023-11-21T03:32:22;101207.81;;;8.15;89.96
55763;BME280;42162;51.958;5.426;2023-11-21T03:34:57;101211.25;;;8.20;90.05
55763;BME280;42162;51.958;5.426;2023-11-21T03:37:26;101223.25;;;8.24;89.72
55763;BME280;42162;51.958;5.426;2023-11-21T03:39:55;101222.41;;;8.27;89.65
55763;BME280;42162;51.958;5.426;2023-11-21T03:42:24;101230.13;;;8.30;89.76
55763;BME280;42162;51.958;5.426;2023-11-21T03:44:54;101228.38;;;8.32;89.79
55763;BME280;42162;51.958;5.426;2023-11-21T03:47:21;101222.31;;;8.34;89.75
55763;BME280;42162;51.958;5.426;2023-11-21T03:49:48;101230.06;;;8.39;89.72
55763;BME280;42162;51.958;5.426;2023-11-21T03:52:16;101227.44;;;8.41;89.71
55763;BME280;42162;51.958;5.426;2023-11-21T03:54:44;101225.72;;;8.40;89.66
55763;BME280;42162;51.958;5.426;2023-11-21T03:57:12;101236.06;;;8.41;89.54
55763;BME280;42162;51.958;5.426;2023-11-21T03:59:43;101236.94;;;8.42;89.40
55763;BME280;42162;51.958;5.426;2023-11-21T04:02:10;101237.81;;;8.41;89.35
55763;BME280;42162;51.958;5.426;2023-11-21T04:04:37;101249.00;;;8.41;89.43
55763;BME280;42162;51.958;5.426;2023-11-21T04:07:05;101238.63;;;8.44;89.74
55763;BME280;42162;51.958;5.426;2023-11-21T04:09:32;101248.97;;;8.46;89.63
55763;BME280;42162;51.958;5.426;2023-11-21T04:11:59;101248.97;;;8.44;89.85
55763;BME280;42162;51.958;5.426;2023-11-21T04:14:27;101253.25;;;8.47;89.88
55763;BME280;42162;51.958;5.426;2023-11-21T04:16:54;101249.84;;;8.48;89.75
55763;BME280;42162;51.958;5.426;2023-11-21T04:19:21;101263.66;;;8.48;89.63
55763;BME280;42162;51.958;5.426;2023-11-21T04:21:48;101255.00;;;8.46;89.99
55763;BME280;42162;51.958;5.426;2023-11-21T04:24:18;101260.19;;;8.43;89.86
55763;BME280;42162;51.958;5.426;2023-11-21T04:26:45;101269.72;;;8.43;90.34
55763;BME280;42162;51.958;5.426;2023-11-21T04:29:12;101268.84;;;8.44;90.29
55763;BME280;42162;51.958;5.426;2023-11-21T04:31:39;101276.59;;;8.45;90.47
55763;BME280;42162;51.958;5.426;2023-11-21T04:34:07;101272.28;;;8.49;90.47
55763;BME280;42162;51.958;5.426;2023-11-21T04:36:35;101277.47;;;8.51;90.50
55763;BME280;42162;51.958;5.426;2023-11-21T04:39:02;101275.72;;;8.49;90.53
55763;BME280;42162;51.958;5.426;2023-11-21T04:41:29;101277.44;;;8.52;90.63
55763;BME280;42162;51.958;5.426;2023-11-21T04:43:58;101282.59;;;8.52;90.81
55763;BME280;42162;51.958;5.426;2023-11-21T04:46:30;101291.22;;;8.54;90.82
55763;BME280;42162;51.958;5.426;2023-11-21T04:48:57;101289.47;;;8.55;90.62
55763;BME280;42162;51.958;5.426;2023-11-21T04:51:25;101298.94;;;8.57;90.66
55763;BME280;42162;51.958;5.426;2023-11-21T04:53:52;101298.09;;;8.57;90.71
55763;BME280;42162;51.958;5.426;2023-11-21T04:56:19;101302.44;;;8.56;90.72
55763;BME280;42162;51.958;5.426;2023-11-21T04:58:46;101302.44;;;8.56;90.78
55763;BME280;42162;51.958;5.426;2023-11-21T05:01:13;101302.44;;;8.56;90.96
55763;BME280;42162;51.958;5.426;2023-11-21T05:03:41;101310.19;;;8.56;90.96
55763;BME280;42162;51.958;5.426;2023-11-21T05:06:11;101309.31;;;8.57;90.88
55763;BME280;42162;51.958;5.426;2023-11-21T05:08:38;101306.72;;;8.56;90.95
55763;BME280;42162;51.958;5.426;2023-11-21T05:11:05;101311.03;;;8.58;90.92
55763;BME280;42162;51.958;5.426;2023-11-21T05:13:34;101313.59;;;8.58;90.87
55763;BME280;42162;51.958;5.426;2023-11-21T05:16:02;101317.06;;;8.60;91.00
55763;BME280;42162;51.958;5.426;2023-11-21T05:18:31;101318.78;;;8.60;91.24
55763;BME280;42162;51.958;5.426;2023-11-21T05:20:58;101319.66;;;8.62;91.25
55763;BME280;42162;51.958;5.426;2023-11-21T05:23:25;101320.47;;;8.64;91.23
55763;BME280;42162;51.958;5.426;2023-11-21T05:25:52;101322.19;;;8.67;91.05
55763;BME280;42162;51.958;5.426;2023-11-21T05:28:20;101324.75;;;8.68;91.20
55763;BME280;42162;51.958;5.426;2023-11-21T05:30:47;101324.72;;;8.70;91.40
55763;BME280;42162;51.958;5.426;2023-11-21T05:33:14;101332.50;;;8.71;91.12
55763;BME280;42162;51.958;5.426;2023-11-21T05:35:41;101333.38;;;8.70;91.33
55763;BME280;42162;51.958;5.426;2023-11-21T05:38:09;101339.44;;;8.69;91.44
55763;BME280;42162;51.958;5.426;2023-11-21T05:40:36;101339.44;;;8.69;91.52
55763;BME280;42162;51.958;5.426;2023-11-21T05:43:04;101345.44;;;8.70;91.63
55763;BME280;42162;51.958;5.426;2023-11-21T05:45:32;101354.97;;;8.69;91.65
55763;BME280;42162;51.958;5.426;2023-11-21T05:47:59;101356.69;;;8.70;91.49
55763;BME280;42162;51.958;5.426;2023-11-21T05:50:26;101346.31;;;8.70;91.76
55763;BME280;42162;51.958;5.426;2023-11-21T05:52:53;101348.91;;;8.72;91.85
55763;BME280;42162;51.958;5.426;2023-11-21T05:55:22;101358.41;;;8.71;91.72
55763;BME280;42162;51.958;5.426;2023-11-21T05:57:53;101358.41;;;8.71;91.68
55763;BME280;42162;51.958;5.426;2023-11-21T06:00:20;101366.13;;;8.74;91.92
55763;BME280;42162;51.958;5.426;2023-11-21T06:02:56;101368.72;;;8.76;91.75
55763;BME280;42162;51.958;5.426;2023-11-21T06:05:25;101373.88;;;8.77;91.79
55763;BME280;42162;51.958;5.426;2023-11-21T06:07:55;101379.06;;;8.79;92.00
55763;BME280;42162;51.958;5.426;2023-11-21T06:10:27;101385.09;;;8.79;91.91
55763;BME280;42162;51.958;5.426;2023-11-21T06:12:55;101377.31;;;8.79;91.92
55763;BME280;42162;51.958;5.426;2023-11-21T06:15:29;101389.44;;;8.79;92.07
55763;BME280;42162;51.958;5.426;2023-11-21T06:17:56;101387.69;;;8.79;92.02
55763;BME280;42162;51.958;5.426;2023-11-21T06:20:24;101391.13;;;8.82;92.00
55763;BME280;42162;51.958;5.426;2023-11-21T06:22:51;101389.41;;;8.80;92.24
55763;BME280;42162;51.958;5.426;2023-11-21T06:25:19;101392.84;;;8.83;92.16
55763;BME280;42162;51.958;5.426;2023-11-21T06:27:47;101391.97;;;8.82;92.34
55763;BME280;42162;51.958;5.426;2023-11-21T06:30:15;101395.44;;;8.83;92.42
55763;BME280;42162;51.958;5.426;2023-11-21T06:32:43;101402.34;;;8.84;92.31
55763;BME280;42162;51.958;5.426;2023-11-21T06:35:14;101402.31;;;8.85;92.29
55763;BME280;42162;51.958;5.426;2023-11-21T06:37:44;101405.75;;;8.87;92.30
55763;BME280;42162;51.958;5.426;2023-11-21T06:40:17;101403.16;;;8.89;92.55
55763;BME280;42162;51.958;5.426;2023-11-21T06:42:48;101400.56;;;8.89;92.35
55763;BME280;42162;51.958;5.426;2023-11-21T06:45:16;101400.56;;;8.89;92.35
55763;BME280;42162;51.958;5.426;2023-11-21T06:47:43;101401.44;;;8.88;92.53
55763;BME280;42162;51.958;5.426;2023-11-21T06:50:14;101413.50;;;8.89;92.62
55763;BME280;42162;51.958;5.426;2023-11-21T06:52:42;101414.38;;;8.88;92.65
55763;BME280;42162;51.958;5.426;2023-11-21T06:55:12;101414.38;;;8.88;92.66
55763;BME280;42162;51.958;5.426;2023-11-21T06:57:40;101417.00;;;8.86;92.88
55763;BME280;42162;51.958;5.426;2023-11-21T07:00:07;101419.59;;;8.86;93.01
55763;BME280;42162;51.958;5.426;2023-11-21T07:02:38;101424.75;;;8.89;92.99
55763;BME280;42162;51.958;5.426;2023-11-21T07:05:06;101429.06;;;8.89;93.20
55763;BME280;42162;51.958;5.426;2023-11-21T07:07:33;101425.59;;;8.90;92.96
55763;BME280;42162;51.958;5.426;2023-11-21T07:10:03;101435.13;;;8.89;93.31
55763;BME280;42162;51.958;5.426;2023-11-21T07:12:31;101448.03;;;8.92;93.19
55763;BME280;42162;51.958;5.426;2023-11-21T07:14:58;101450.63;;;8.92;93.46
55763;BME280;42162;51.958;5.426;2023-11-21T07:17:25;101458.38;;;8.95;93.43
55763;BME280;42162;51.958;5.426;2023-11-21T07:19:52;101454.91;;;8.97;93.23
55763;BME280;42162;51.958;5.426;2023-11-21T07:22:20;101454.91;;;9.00;93.45
55763;BME280;42162;51.958;5.426;2023-11-21T07:24:49;101462.66;;;9.01;93.46
55763;BME280;42162;51.958;5.426;2023-11-21T07:27:19;101463.50;;;9.03;93.35
55763;BME280;42162;51.958;5.426;2023-11-21T07:29:46;101473.84;;;9.05;93.41
55763;BME280;42162;51.958;5.426;2023-11-21T07:32:15;101477.31;;;9.05;93.58
55763;BME280;42162;51.958;5.426;2023-11-21T07:34:43;101475.56;;;9.06;93.74
55763;BME280;42162;51.958;5.426;2023-11-21T07:37:10;101480.75;;;9.07;93.80
55763;BME280;42162;51.958;5.426;2023-11-21T07:39:37;101480.75;;;9.06;93.78
55763;BME280;42162;51.958;5.426;2023-11-21T07:42:09;101479.91;;;9.04;93.98
55763;BME280;42162;51.958;5.426;2023-11-21T07:44:37;101481.63;;;9.03;94.40
55763;BME280;42162;51.958;5.426;2023-11-21T07:47:05;101482.47;;;9.07;94.72
55763;BME280;42162;51.958;5.426;2023-11-21T07:49:32;101478.13;;;9.09;94.76
55763;BME280;42162;51.958;5.426;2023-11-21T07:51:59;101489.34;;;9.13;94.87
55763;BME280;42162;51.958;5.426;2023-11-21T07:54:27;101487.59;;;9.15;94.93
55763;BME280;42162;51.958;5.426;2023-11-21T07:56:54;101485.84;;;9.17;95.04
55763;BME280;42162;51.958;5.426;2023-11-21T07:59:22;101487.56;;;9.19;95.05
55763;BME280;42162;51.958;5.426;2023-11-21T08:01:49;101497.03;;;9.23;95.20
55763;BME280;42162;51.958;5.426;2023-11-21T08:04:17;101508.22;;;9.27;95.30
55763;BME280;42162;51.958;5.426;2023-11-21T08:06:45;101510.81;;;9.29;95.35
55763;BME280;42162;51.958;5.426;2023-11-21T08:09:13;101514.28;;;9.29;95.43
55763;BME280;42162;51.958;5.426;2023-11-21T08:11:40;101515.13;;;9.28;95.55
55763;BME280;42162;51.958;5.426;2023-11-21T08:14:07;101527.22;;;9.29;95.72
55763;BME280;42162;51.958;5.426;2023-11-21T08:16:34;101524.66;;;9.29;95.72
55763;BME280;42162;51.958;5.426;2023-11-21T08:19:02;101532.41;;;9.29;95.74
55763;BME280;42162;51.958;5.426;2023-11-21T08:21:30;101529.81;;;9.29;95.67
55763;BME280;42162;51.958;5.426;2023-11-21T08:23:58;101539.31;;;9.32;96.03
55763;BME280;42162;51.958;5.426;2023-11-21T08:26:25;101541.03;;;9.33;96.05
55763;BME280;42162;51.958;5.426;2023-11-21T08:28:52;101538.41;;;9.34;95.87
55763;BME280;42162;51.958;5.426;2023-11-21T08:31:24;101538.41;;;9.34;96.11
55763;BME280;42162;51.958;5.426;2023-11-21T08:33:52;101545.31;;;9.35;96.22
55763;BME280;42162;51.958;5.426;2023-11-21T08:36:22;101559.13;;;9.37;96.30
55763;BME280;42162;51.958;5.426;2023-11-21T08:38:51;101555.66;;;9.38;96.21
55763;BME280;42162;51.958;5.426;2023-11-21T08:41:21;101567.78;;;9.39;96.42
55763;BME280;42162;51.958;5.426;2023-11-21T08:43:52;101568.63;;;9.38;96.32
55763;BME280;42162;51.958;5.426;2023-11-21T08:46:21;101576.41;;;9.38;96.42
55763;BME280;42162;51.958;5.426;2023-11-21T08:48:48;101579.88;;;9.37;96.69
55763;BME280;42162;51.958;5.426;2023-11-21T08:51:15;101581.59;;;9.38;96.70
55763;BME280;42162;51.958;5.426;2023-11-21T08:53:43;101582.44;;;9.39;96.79
55763;BME280;42162;51.958;5.426;2023-11-21T08:56:13;101585.06;;;9.40;96.82
55763;BME280;42162;51.958;5.426;2023-11-21T08:58:41;101591.09;;;9.43;96.83
55763;BME280;42162;51.958;5.426;2023-11-21T09:01:08;101591.03;;;9.46;97.06
55763;BME280;42162;51.958;5.426;2023-11-21T09:03:36;101599.69;;;9.48;97.18
55763;BME280;42162;51.958;5.426;2023-11-21T09:06:03;101607.47;;;9.46;96.87
55763;BME280;42162;51.958;5.426;2023-11-21T09:08:31;101602.28;;;9.45;97.10
55763;BME280;42162;51.958;5.426;2023-11-21T09:10:58;101602.28;;;9.45;97.28
55763;BME280;42162;51.958;5.426;2023-11-21T09:13:26;101605.72;;;9.47;97.18
55763;BME280;42162;51.958;5.426;2023-11-21T09:15:53;101610.94;;;9.48;97.22
55763;BME280;42162;51.958;5.426;2023-11-21T09:18:20;101616.94;;;9.50;97.50
55763;BME280;42162;51.958;5.426;2023-11-21T09:20:48;101615.19;;;9.52;97.32
55763;BME280;42162;51.958;5.426;2023-11-21T09:23:15;101615.19;;;9.52;97.39
55763;BME280;42162;51.958;5.426;2023-11-21T09:25:42;101627.28;;;9.56;97.20
55763;BME280;42162;51.958;5.426;2023-11-21T09:28:13;101629.84;;;9.58;97.53
55763;BME280;42162;51.958;5.426;2023-11-21T09:30:40;101627.28;;;9.60;97.47
55763;BME280;42162;51.958;5.426;2023-11-21T09:33:09;101619.47;;;9.61;97.34
55763;BME280;42162;51.958;5.426;2023-11-21T09:35:38;101615.97;;;9.64;97.36
55763;BME280;42162;51.958;5.426;2023-11-21T09:38:05;101634.09;;;9.68;97.57
55763;BME280;42162;51.958;5.426;2023-11-21T09:40:37;101636.63;;;9.76;97.48
55763;BME280;42162;51.958;5.426;2023-11-21T09:43:30;101647.00;;;9.79;97.40
55763;BME280;42162;51.958;5.426;2023-11-21T09:46:00;101643.47;;;9.85;97.59
55763;BME280;42162;51.958;5.426;2023-11-21T09:48:30;101653.00;;;9.86;97.54
55763;BME280;42162;51.958;5.426;2023-11-21T09:50:59;101658.13;;;9.91;97.59
55763;BME280;42162;51.958;5.426;2023-11-21T09:53:27;101664.19;;;9.91;97.47
55763;BME280;42162;51.958;5.426;2023-11-21T09:55:56;101660.72;;;9.92;97.68
55763;BME280;42162;51.958;5.426;2023-11-21T09:58:24;101667.63;;;9.93;97.64
55763;BME280;42162;51.958;5.426;2023-11-21T10:00:57;101677.16;;;9.93;97.63
55763;BME280;42162;51.958;5.426;2023-11-21T10:03:24;101676.31;;;9.91;97.37
55763;BME280;42162;51.958;5.426;2023-11-21T10:05:53;101688.41;;;9.90;97.65
55763;BME280;42162;51.958;5.426;2023-11-21T10:08:22;101679.78;;;9.90;97.48
55763;BME280;42162;51.958;5.426;2023-11-21T10:10:53;101683.25;;;9.88;97.64
55763;BME280;42162;51.958;5.426;2023-11-21T10:13:20;101691.88;;;9.91;97.81
55763;BME280;42162;51.958;5.426;2023-11-21T10:15:49;101698.78;;;9.92;97.90
55763;BME280;42162;51.958;5.426;2023-11-21T10:18:17;101703.97;;;9.92;97.78
55763;BME280;42162;51.958;5.426;2023-11-21T10:20:44;101714.34;;;9.93;97.95
55763;BME280;42162;51.958;5.426;2023-11-21T10:23:21;101710.03;;;9.92;97.90
55763;BME280;42162;51.958;5.426;2023-11-21T10:25:51;101717.81;;;9.92;98.16
55763;BME280;42162;51.958;5.426;2023-11-21T10:28:20;101730.78;;;9.94;98.25
55763;BME280;42162;51.958;5.426;2023-11-21T10:30:48;101727.31;;;9.93;98.10
55763;BME280;42162;51.958;5.426;2023-11-21T10:33:16;101732.50;;;9.93;97.87
55763;BME280;42162;51.958;5.426;2023-11-21T10:35:48;101726.47;;;9.90;97.91
55763;BME280;42162;51.958;5.426;2023-11-21T10:38:18;101729.13;;;9.85;97.64
55763;BME280;42162;51.958;5.426;2023-11-21T10:40:50;101730.00;;;9.82;97.71
55763;BME280;42162;51.958;5.426;2023-11-21T10:43:18;101735.19;;;9.84;97.91
55763;BME280;42162;51.958;5.426;2023-11-21T10:45:45;101736.91;;;9.85;98.02
55763;BME280;42162;51.958;5.426;2023-11-21T10:48:14;101733.44;;;9.83;97.84
55763;BME280;42162;51.958;5.426;2023-11-21T10:50:46;101747.31;;;9.83;97.87
55763;BME280;42162;51.958;5.426;2023-11-21T10:53:14;101750.75;;;9.84;98.04
55763;BME280;42162;51.958;5.426;2023-11-21T10:55:42;101750.72;;;9.88;98.04
55763;BME280;42162;51.958;5.426;2023-11-21T10:58:13;101759.38;;;9.89;97.80
55763;BME280;42162;51.958;5.426;2023-11-21T11:00:42;101765.41;;;9.90;97.95
55763;BME280;42162;51.958;5.426;2023-11-21T11:03:12;101766.25;;;9.93;97.93
55763;BME280;42162;51.958;5.426;2023-11-21T11:05:44;101767.09;;;9.95;98.07
55763;BME280;42162;51.958;5.426;2023-11-21T11:08:22;101768.81;;;9.96;98.01
55763;BME280;42162;51.958;5.426;2023-11-21T11:10:55;101777.47;;;9.98;97.89
55763;BME280;42162;51.958;5.426;2023-11-21T11:13:23;101780.91;;;10.00;97.85
55763;BME280;42162;51.958;5.426;2023-11-21T11:15:59;101778.31;;;10.00;98.01
55763;BME280;42162;51.958;5.426;2023-11-21T11:18:28;101780.91;;;10.00;97.99
55763;BME280;42162;51.958;5.426;2023-11-21T11:21:11;101780.91;;;10.00;97.89
55763;BME280;42162;51.958;5.426;2023-11-21T11:26:58;101781.75;;;10.02;97.79
55763;BME280;42162;51.958;5.426;2023-11-21T11:34:55;101795.63;;;9.98;97.38
55763;BME280;42162;51.958;5.426;2023-11-21T11:37:26;101793.91;;;10.00;97.37
55763;BME280;42162;51.958;5.426;2023-11-21T11:39:54;101786.06;;;10.03;97.32
55763;BME280;42162;51.958;5.426;2023-11-21T11:42:22;101795.56;;;10.08;97.45
55763;BME280;42162;51.958;5.426;2023-11-21T11:44:51;101796.44;;;10.10;97.29
55763;BME280;42162;51.958;5.426;2023-11-21T11:47:26;101808.50;;;10.14;97.09
55763;BME280;42162;51.958;5.426;2023-11-21T11:50:11;101813.72;;;10.12;96.76
55763;BME280;42162;51.958;5.426;2023-11-21T11:52:51;101821.50;;;10.12;97.04
55763;BME280;42162;51.958;5.426;2023-11-21T11:55:24;101824.09;;;10.12;96.80
55763;BME280;42162;51.958;5.426;2023-11-21T11:57:53;101829.25;;;10.14;96.98
55763;BME280;42162;51.958;5.426;2023-11-21T12:02:55;101830.13;;;10.13;96.75
55763;BME280;42162;51.958;5.426;2023-11-21T12:05:25;101830.16;;;10.11;96.48
55763;BME280;42162;51.958;5.426;2023-11-21T12:07:56;101834.47;;;10.09;96.60
55763;BME280;42162;51.958;5.426;2023-11-21T12:10:28;101839.69;;;10.09;96.71
55763;BME280;42162;51.958;5.426;2023-11-21T12:13:00;101835.38;;;10.10;96.62
55763;BME280;42162;51.958;5.426;2023-11-21T12:15:28;101850.97;;;10.05;96.42
55763;BME280;42162;51.958;5.426;2023-11-21T12:17:58;101849.19;;;10.07;95.84
55763;BME280;42162;51.958;5.426;2023-11-21T12:20:27;101844.00;;;10.07;95.95
55763;BME280;42162;51.958;5.426;2023-11-21T12:22:56;101854.38;;;10.10;95.98
55763;BME280;42162;51.958;5.426;2023-11-21T12:25:30;101850.91;;;10.13;95.88
55763;BME280;42162;51.958;5.426;2023-11-21T12:28:01;101852.63;;;10.15;95.83
55763;BME280;42162;51.958;5.426;2023-11-21T12:30:31;101855.19;;;10.18;95.60
55763;BME280;42162;51.958;5.426;2023-11-21T12:33:00;101857.78;;;10.20;95.72
55763;BME280;42162;51.958;5.426;2023-11-21T12:35:33;101863.84;;;10.22;95.41
55763;BME280;42162;51.958;5.426;2023-11-21T12:38:02;101861.22;;;10.27;95.74
55763;BME280;42162;51.958;5.426;2023-11-21T12:40:30;101862.03;;;10.32;95.85
55763;BME280;42162;51.958;5.426;2023-11-21T12:42:58;101865.47;;;10.37;95.83
55763;BME280;42162;51.958;5.426;2023-11-21T12:45:28;101857.69;;;10.34;95.31
55763;BME280;42162;51.958;5.426;2023-11-21T12:47:59;101865.50;;;10.32;95.08
55763;BME280;42162;51.958;5.426;2023-11-21T12:50:28;101867.25;;;10.29;94.92
55763;BME280;42162;51.958;5.426;2023-11-21T12:53:04;101873.34;;;10.25;94.96
55763;BME280;42162;51.958;5.426;2023-11-21T12:55:33;101865.56;;;10.23;95.05
55763;BME280;42162;51.958;5.426;2023-11-21T12:58:08;101875.97;;;10.23;95.14
55763;BME280;42162;51.958;5.426;2023-11-21T13:00:40;101875.94;;;10.28;95.20
55763;BME280;42162;51.958;5.426;2023-11-21T13:03:11;101881.97;;;10.28;95.15
55763;BME280;42162;51.958;5.426;2023-11-21T13:05:41;101881.13;;;10.28;95.01
55763;BME280;42162;51.958;5.426;2023-11-21T13:08:20;101894.94;;;10.30;95.30
55763;BME280;42162;51.958;5.426;2023-11-21T13:10:55;101891.47;;;10.32;95.17
55763;BME280;42162;51.958;5.426;2023-11-21T13:13:25;101895.81;;;10.30;95.06
55763;BME280;42162;51.958;5.426;2023-11-21T13:16:00;101889.75;;;10.28;95.16
55763;BME280;42162;51.958;5.426;2023-11-21T13:18:28;101894.94;;;10.30;95.12
55763;BME280;42162;51.958;5.426;2023-11-21T13:21:04;101894.97;;;10.27;95.12